Pagrindinis puslapis
METAR-TAF:

METAR-TAF

Oro uostai :

Schleswig-Jagel, Vokietija

platuma: 54-28N, ilguma: 009-31E, Aukštis: 22 m

Dabartinis oras

Ataskaita buvo paskelbta 43 minutes, ne 17:20 UTC
Vėjas 5 kt iš Pietų/Pietryčių
Temperatūra 18°C
Drėgmė 77%
Slėgis 1001 hPa
Matomumas 10 km arba daugiau

METAR: ETNS 231720Z AUTO 15005KT 9999 // ////// 18/14 Q1001 ///

Laikas: 20:03 (18:03 UTC)

Prognozė

Ataskaita buvo paskelbta 29 valandos ir 2 minutes, ne 13:01 UTC
Prognozė galioja nuo 22 metu 14 UTC su 22 metu 23 UTC
Vėjas 5 kt iš Vakarų/Pietvakarių
Matomumas 10 km arba daugiau
Giedras dangus
Tapsmas
nuo 22 metu 20 UTC su 22 metu 22 UTC
Vėjas 3 kt nuo kintamojo kryptimis
Matomumas: 3000 m
Giedras dangus
Sekli rūkas

TAF: ETNS 221301Z 2214/2223 25005KT 9999 NSW SKC BECMG 2220/2222 VRB03KT 3000 MIFG SKC BY ETGL

Orai ataskaitas ir orų prognozės (METAR, TAF).

turimą stotys yra geltonos ir raudonos taškus žemėlapyje.

Perkelti pele per norėdami pamatyti stoties vardą.

Tada spustelėkite, norėdami matyti oro stebėjimo ir prognozės.

Norėdami pakeisti žemėlapį: spustelėkite ant žalios mygtukų su juodo kryžiaus žemyn,; žalią mygtuką su brūkšneliu, jei norite nutolinti; arba žalių rodyklių gretimoms žemėlapius.


METAR-TAF: